Time;durP1;ratioP1;P1;durP2;ratioP2;P2;SDS_P1;SDS_P2;PMS_P1;PMS_P2;Temp;Humidity;BMP_temperature;BMP_pressure;BME280_temperature;BME280_humidity;BME280_pressure;Samples;Min_cycle;Max_cycle;Signal;HPM_P1;HPM_P2
2023/04/23 00:02:21;;;;;;;36.10;22.30;;;;;;;7.29;63.31;99825.55;129467;1264;114710;-68
2023/04/23 00:05:26;;;;;;;36.80;21.10;;;;;;;7.31;63.32;99824.56;129247;1267;114868;-68
2023/04/23 00:08:29;;;;;;;34.90;21.40;;;;;;;7.33;63.25;99822.38;129418;1262;114726;-66
2023/04/23 00:11:32;;;;;;;32.10;21.10;;;;;;;7.34;63.19;99820.38;129480;1263;114778;-67
2023/04/23 00:14:34;;;;;;;33.00;19.70;;;;;;;7.34;63.24;99820.00;129570;1259;114721;-67
2023/04/23 00:17:37;;;;;;;33.00;21.20;;;;;;;7.36;63.42;99814.08;129471;1259;114831;-68
2023/04/23 00:20:40;;;;;;;33.00;19.90;;;;;;;7.37;63.21;99814.91;129572;1264;114828;-68
2023/04/23 00:23:42;;;;;;;31.90;20.30;;;;;;;7.39;63.27;99812.50;129719;1274;114839;-66
2023/04/23 00:26:44;;;;;;;33.50;21.00;;;;;;;7.42;63.24;99812.21;129691;1259;114711;-66
2023/04/23 00:29:50;;;;;;;31.60;20.40;;;;;;;7.43;63.12;99808.45;129635;1272;114796;-65
2023/04/23 00:32:53;;;;;;;35.30;19.90;;;;;;;7.42;62.94;99806.67;129583;1261;128307;-65
2023/04/23 00:35:55;;;;;;;32.90;20.00;;;;;;;7.44;63.24;99804.48;129415;1259;114874;-65
2023/04/23 00:38:58;;;;;;;32.50;19.60;;;;;;;7.43;63.10;99803.09;129468;1262;116318;-65
2023/04/23 00:42:05;;;;;;;39.20;21.60;;;;;;;7.43;63.40;99799.91;129513;1261;114835;-65
2023/04/23 00:45:09;;;;;;;33.60;20.10;;;;;;;7.43;63.31;99802.74;129433;1259;114786;-64
2023/04/23 00:48:11;;;;;;;33.50;20.60;;;;;;;7.43;63.43;99799.38;129477;1259;114817;-64
2023/04/23 00:51:16;;;;;;;36.50;21.40;;;;;;;7.42;63.15;99794.59;129432;1259;114806;-65
2023/04/23 00:54:18;;;;;;;32.80;21.40;;;;;;;7.41;63.46;99791.45;129500;1277;114782;-66
2023/04/23 00:57:22;;;;;;;31.30;20.10;;;;;;;7.39;63.45;99790.13;129398;1274;114844;-65
2023/04/23 01:00:25;;;;;;;34.90;21.30;;;;;;;7.35;63.41;99792.25;129478;1281;114750;-64
2023/04/23 01:03:28;;;;;;;33.10;20.80;;;;;;;7.33;63.73;99788.98;129495;1259;115261;-66
2023/04/23 01:06:31;;;;;;;30.90;21.30;;;;;;;7.32;63.48;99787.59;129449;1262;114732;-64
2023/04/23 01:09:34;;;;;;;31.70;20.20;;;;;;;7.32;63.66;99785.65;129436;1259;115109;-64
2023/04/23 01:12:38;;;;;;;31.10;21.00;;;;;;;7.32;63.77;99784.93;129381;1262;116392;-65
2023/04/23 01:15:45;;;;;;;39.60;22.10;;;;;;;7.31;64.05;99787.61;129322;1281;114825;-65
2023/04/23 01:18:48;;;;;;;33.80;21.00;;;;;;;7.30;63.97;99785.55;129333;1261;129149;-65
2023/04/23 01:21:51;;;;;;;35.70;22.40;;;;;;;7.29;63.99;99782.22;129051;1259;587635;-64
2023/04/23 01:24:54;;;;;;;36.20;22.10;;;;;;;7.29;64.17;99782.92;129465;1261;116376;-65
2023/04/23 01:27:57;;;;;;;34.10;21.80;;;;;;;7.29;64.19;99783.98;129412;1260;115348;-65
2023/04/23 01:31:00;;;;;;;31.60;20.60;;;;;;;7.27;64.10;99787.26;129587;1261;114704;-65
2023/04/23 01:34:02;;;;;;;37.30;22.00;;;;;;;7.24;64.16;99785.64;129752;1262;115309;-65
2023/04/23 01:37:06;;;;;;;36.60;22.10;;;;;;;7.22;64.50;99784.31;129542;1260;114761;-64
2023/04/23 01:40:09;;;;;;;37.70;20.50;;;;;;;7.20;64.60;99783.48;129392;1280;115525;-66
2023/04/23 01:43:11;;;;;;;29.30;20.60;;;;;;;7.20;64.55;99777.64;129411;1259;114732;-65
2023/04/23 01:46:14;;;;;;;34.30;22.40;;;;;;;7.19;64.50;99777.35;129479;1259;115227;-66
2023/04/23 01:49:17;;;;;;;35.50;21.40;;;;;;;7.17;64.71;99774.05;129579;1261;114848;-64
2023/04/23 01:52:19;;;;;;;36.50;21.80;;;;;;;7.14;64.74;99770.59;129458;1259;115604;-65
2023/04/23 01:55:22;;;;;;;35.10;21.70;;;;;;;7.14;64.90;99770.98;129417;1281;128648;-64
2023/04/23 01:58:25;;;;;;;37.10;22.10;;;;;;;7.13;64.98;99769.96;129476;1281;115175;-66
2023/04/23 02:01:44;;;;;;;35.60;21.60;;;;;;;7.12;65.16;99768.02;129521;1274;114700;-65
2023/04/23 02:04:47;;;;;;;34.70;21.40;;;;;;;7.11;65.00;99766.48;129595;1260;114839;-65
2023/04/23 02:07:51;;;;;;;34.80;22.10;;;;;;;7.10;65.15;99766.89;129204;1264;114862;-66
2023/04/23 02:10:53;;;;;;;35.70;22.90;;;;;;;7.08;64.91;99763.27;129523;1261;128597;-66
2023/04/23 02:13:55;;;;;;;36.00;22.80;;;;;;;7.07;65.28;99760.96;129485;1259;114721;-65
2023/04/23 02:16:58;;;;;;;38.20;22.80;;;;;;;7.07;65.24;99762.21;129446;1262;114840;-65
2023/04/23 02:20:01;;;;;;;38.40;22.60;;;;;;;7.06;65.41;99758.34;129256;1264;114986;-66
2023/04/23 02:23:03;;;;;;;36.80;22.70;;;;;;;7.06;65.44;99756.94;129273;1259;116419;-66
2023/04/23 02:26:06;;;;;;;35.30;21.90;;;;;;;7.06;65.57;99758.17;129419;1261;115245;-65
2023/04/23 02:29:09;;;;;;;39.30;23.40;;;;;;;7.07;65.34;99759.39;129447;1259;114826;-66
2023/04/23 02:32:11;;;;;;;36.20;22.90;;;;;;;7.04;65.41;99757.36;129404;1262;114770;-65
2023/04/23 02:35:13;;;;;;;36.40;23.70;;;;;;;7.01;65.66;99752.18;129438;1261;114777;-65
2023/04/23 02:38:16;;;;;;;35.20;22.70;;;;;;;6.99;65.60;99752.98;129416;1259;115192;-66
2023/04/23 02:41:18;;;;;;;37.90;23.00;;;;;;;6.98;65.75;99751.79;129409;1259;115335;-66
2023/04/23 02:44:20;;;;;;;36.00;22.50;;;;;;;6.97;65.88;99750.38;129504;1259;114742;-65
2023/04/23 02:47:22;;;;;;;37.20;24.40;;;;;;;6.96;65.86;99751.14;129444;1281;114727;-66
2023/04/23 02:50:25;;;;;;;37.90;24.20;;;;;;;6.95;65.80;99754.23;129187;1281;127922;-66
2023/04/23 02:53:27;;;;;;;36.80;23.70;;;;;;;6.94;65.90;99753.19;129458;1277;114835;-67
2023/04/23 02:56:29;;;;;;;39.70;23.50;;;;;;;6.94;65.84;99751.27;129447;1259;114857;-65
2023/04/23 02:59:32;;;;;;;35.70;24.10;;;;;;;6.92;66.07;99752.73;129320;1259;114770;-67
2023/04/23 03:02:34;;;;;;;37.00;23.70;;;;;;;6.90;66.10;99750.35;129451;1259;114807;-66
2023/04/23 03:05:36;;;;;;;37.70;23.70;;;;;;;6.88;66.21;99753.27;129563;1264;114816;-66
2023/04/23 03:08:39;;;;;;;33.20;22.20;;;;;;;6.86;66.24;99754.27;129435;1259;114741;-66
2023/04/23 03:11:42;;;;;;;35.80;23.10;;;;;;;6.83;66.21;99751.87;129190;1267;128491;-66
2023/04/23 03:14:44;;;;;;;35.70;23.50;;;;;;;6.81;66.29;99750.36;129503;1271;116352;-67
2023/04/23 03:17:47;;;;;;;35.20;23.10;;;;;;;6.78;66.35;99749.27;129422;1271;114764;-66
2023/04/23 03:20:49;;;;;;;38.00;22.70;;;;;;;6.75;66.35;99751.68;129764;1261;114709;-66
2023/04/23 03:23:52;;;;;;;37.00;21.90;;;;;;;6.73;66.61;99751.59;129572;1271;116368;-66
2023/04/23 03:26:54;;;;;;;39.20;23.10;;;;;;;6.70;66.61;99750.29;129369;1265;114886;-66
2023/04/23 03:29:56;;;;;;;38.50;23.80;;;;;;;6.68;66.65;99748.42;129466;1262;114786;-66
2023/04/23 03:33:01;;;;;;;34.00;22.80;;;;;;;6.66;66.68;99748.55;129512;1262;115320;-66
2023/04/23 03:36:04;;;;;;;38.10;23.30;;;;;;;6.63;66.82;99747.42;129449;1260;114787;-66
2023/04/23 03:39:06;;;;;;;34.60;23.10;;;;;;;6.62;66.88;99751.03;129472;1261;114737;-66
2023/04/23 03:42:09;;;;;;;38.40;22.90;;;;;;;6.60;66.91;99747.73;129405;1264;114718;-65
2023/04/23 03:45:15;;;;;;;40.80;25.40;;;;;;;6.57;66.97;99748.73;129481;1261;114775;-65
2023/04/23 03:48:19;;;;;;;40.10;24.00;;;;;;;6.57;67.07;99750.15;129379;1281;115239;-65
2023/04/23 03:51:21;;;;;;;37.50;24.70;;;;;;;6.57;67.17;99748.89;129389;1261;114798;-66
2023/04/23 03:54:25;;;;;;;40.90;24.00;;;;;;;6.58;67.12;99747.09;129485;1263;114750;-65
2023/04/23 03:57:28;;;;;;;39.20;24.30;;;;;;;6.59;67.37;99746.69;129450;1262;114666;-65
2023/04/23 04:00:30;;;;;;;41.90;23.60;;;;;;;6.61;67.40;99742.17;129394;1259;115377;-65
2023/04/23 04:03:32;;;;;;;36.80;24.70;;;;;;;6.64;67.54;99743.48;129501;1262;114708;-65
2023/04/23 04:06:34;;;;;;;39.00;24.40;;;;;;;6.67;67.46;99744.92;129449;1260;115414;-66
2023/04/23 04:09:37;;;;;;;38.70;24.30;;;;;;;6.72;67.48;99745.45;129469;1261;114727;-67
2023/04/23 04:12:40;;;;;;;39.40;24.10;;;;;;;6.77;67.64;99741.88;129404;1262;115253;-65
2023/04/23 04:15:43;;;;;;;37.00;23.10;;;;;;;6.81;67.64;99744.16;129456;1261;114759;-66
2023/04/23 04:18:45;;;;;;;39.20;24.60;;;;;;;6.85;67.66;99744.70;129524;1259;114727;-64
2023/04/23 04:21:48;;;;;;;43.50;25.70;;;;;;;6.90;67.43;99744.31;129746;1260;114735;-64
2023/04/23 04:24:51;;;;;;;38.40;24.90;;;;;;;6.95;67.61;99743.02;129486;1264;114726;-66
2023/04/23 04:27:54;;;;;;;43.90;25.50;;;;;;;7.02;67.60;99744.34;129463;1261;115089;-65
2023/04/23 04:30:56;;;;;;;41.50;26.00;;;;;;;7.08;67.71;99741.23;129497;1281;114743;-66
2023/04/23 04:33:59;;;;;;;37.30;24.00;;;;;;;7.15;67.54;99740.93;129398;1277;114734;-64
2023/04/23 04:37:02;;;;;;;38.70;25.10;;;;;;;7.23;67.66;99740.75;129385;1271;114727;-64
2023/04/23 04:40:06;;;;;;;47.00;25.00;;;;;;;7.31;67.68;99735.05;129728;1259;114772;-64
2023/04/23 04:43:09;;;;;;;37.40;23.90;;;;;;;7.41;67.68;99734.62;129680;1281;114750;-65
2023/04/23 04:46:12;;;;;;;36.10;25.00;;;;;;;7.54;67.83;99730.82;129460;1261;114732;-65
2023/04/23 04:49:17;;;;;;;37.50;24.60;;;;;;;7.74;67.79;99730.05;129514;1261;114708;-66
2023/04/23 04:52:19;;;;;;;38.00;23.90;;;;;;;8.13;67.79;99731.77;129306;1281;114988;-65
2023/04/23 04:55:22;;;;;;;35.70;22.50;;;;;;;8.69;67.57;99725.27;129471;1278;114687;-66
2023/04/23 04:58:24;;;;;;;36.90;22.50;;;;;;;9.27;67.07;99723.71;129474;1264;115149;-66
2023/04/23 05:01:27;;;;;;;35.20;22.50;;;;;;;9.83;66.48;99723.86;129559;1261;114997;-66
2023/04/23 05:04:29;;;;;;;32.10;22.10;;;;;;;10.41;65.96;99720.83;129617;1260;114896;-67
2023/04/23 05:07:32;;;;;;;33.00;21.20;;;;;;;10.93;65.43;99720.97;129604;1263;114796;-67
2023/04/23 05:10:34;;;;;;;30.90;21.50;;;;;;;11.50;64.97;99716.80;129628;1262;114643;-66
2023/04/23 05:13:36;;;;;;;35.20;22.10;;;;;;;12.09;64.37;99715.21;129327;1262;115055;-66
2023/04/23 05:16:38;;;;;;;29.90;20.60;;;;;;;12.67;63.13;99712.48;129520;1272;114825;-66
2023/04/23 05:19:40;;;;;;;29.20;20.20;;;;;;;13.15;62.31;99715.64;129758;1274;114825;-66
2023/04/23 05:22:42;;;;;;;32.50;20.30;;;;;;;13.50;61.53;99709.05;129622;1261;115263;-67
2023/04/23 05:25:44;;;;;;;32.00;19.80;;;;;;;13.81;60.81;99706.50;129703;1262;115327;-68
2023/04/23 05:28:47;;;;;;;27.80;19.90;;;;;;;14.04;60.08;99703.57;129515;1264;114764;-66
2023/04/23 05:31:49;;;;;;;34.20;21.90;;;;;;;14.18;60.02;99702.25;129456;1261;114782;-68
2023/04/23 05:34:51;;;;;;;33.30;21.50;;;;;;;14.28;59.56;99699.53;129437;1273;115215;-66
2023/04/23 05:37:54;;;;;;;31.50;20.30;;;;;;;14.30;58.86;99697.42;129491;1269;114947;-66
2023/04/23 05:40:57;;;;;;;28.10;18.70;;;;;;;14.20;58.67;99696.50;129392;1276;128249;-67
2023/04/23 05:43:59;;;;;;;28.60;20.20;;;;;;;14.09;58.74;99696.57;129429;1270;114899;-67
2023/04/23 05:47:02;;;;;;;32.70;20.40;;;;;;;14.01;58.42;99695.19;129486;1262;114743;-67
2023/04/23 05:50:06;;;;;;;34.10;21.30;;;;;;;14.03;58.21;99688.98;129519;1260;114714;-66
2023/04/23 05:53:08;;;;;;;27.30;19.90;;;;;;;14.19;58.44;99686.84;129626;1271;114786;-67
2023/04/23 05:56:13;;;;;;;26.30;19.40;;;;;;;14.45;58.22;99689.61;129624;1273;114921;-67
2023/04/23 05:59:16;;;;;;;31.40;19.60;;;;;;;14.73;57.94;99687.91;129131;1281;128811;-66
2023/04/23 06:02:18;;;;;;;27.40;17.90;;;;;;;15.05;57.71;99690.44;129471;1265;114826;-67
2023/04/23 06:05:20;;;;;;;29.30;18.40;;;;;;;15.34;57.50;99687.83;129811;1262;114730;-67
2023/04/23 06:08:23;;;;;;;25.70;18.00;;;;;;;15.69;57.11;99682.69;129564;1264;114826;-68
2023/04/23 06:11:28;;;;;;;28.70;18.20;;;;;;;16.20;56.56;99684.36;129404;1259;114813;-67
2023/04/23 06:14:30;;;;;;;27.90;17.90;;;;;;;16.65;55.76;99679.36;129569;1259;114693;-67
2023/04/23 06:17:34;;;;;;;22.60;16.20;;;;;;;17.23;55.26;99673.72;129462;1271;114858;-67
2023/04/23 06:20:36;;;;;;;18.50;15.00;;;;;;;17.85;53.81;99674.73;129466;1274;114762;-67
2023/04/23 06:23:39;;;;;;;23.10;15.40;;;;;;;18.40;53.72;99672.07;129557;1262;114762;-66
2023/04/23 06:26:41;;;;;;;22.10;14.70;;;;;;;18.95;53.30;99668.42;129670;1262;114729;-67
2023/04/23 06:29:44;;;;;;;21.80;14.80;;;;;;;19.45;52.09;99671.27;129481;1267;114762;-66
2023/04/23 06:32:46;;;;;;;22.30;15.00;;;;;;;19.88;51.19;99670.61;129607;1281;115409;-68
2023/04/23 06:35:48;;;;;;;22.80;15.90;;;;;;;20.23;50.41;99668.80;129561;1266;114728;-67
2023/04/23 06:38:51;;;;;;;22.60;15.70;;;;;;;20.58;50.33;99664.23;129543;1260;114738;-66
2023/04/23 06:41:53;;;;;;;22.30;14.90;;;;;;;20.92;49.08;99665.30;129509;1281;115363;-66
2023/04/23 06:44:58;;;;;;;22.20;13.60;;;;;;;21.26;49.37;99663.98;129498;1281;114827;-67
2023/04/23 06:48:00;;;;;;;21.20;13.30;;;;;;;21.52;48.58;99655.44;129316;1265;116141;-65
2023/04/23 06:51:02;;;;;;;17.00;12.50;;;;;;;21.78;48.15;99654.83;129417;1271;114825;-65
2023/04/23 06:54:04;;;;;;;16.20;12.40;;;;;;;21.97;47.31;99651.16;129493;1278;114803;-66
2023/04/23 06:57:07;;;;;;;15.90;12.40;;;;;;;22.12;46.95;99645.20;129329;1281;128632;-67
2023/04/23 07:00:10;;;;;;;17.20;11.00;;;;;;;22.29;46.66;99640.79;129442;1262;115229;-67
2023/04/23 07:03:12;;;;;;;18.00;11.20;;;;;;;22.51;46.34;99637.73;129563;1271;114726;-66
2023/04/23 07:06:15;;;;;;;16.70;11.40;;;;;;;22.69;45.25;99637.71;129587;1263;114730;-67
2023/04/23 07:09:17;;;;;;;15.60;11.40;;;;;;;22.96;44.84;99634.55;129596;1275;114743;-66
2023/04/23 07:12:19;;;;;;;15.10;11.00;;;;;;;23.21;44.53;99630.52;129468;1281;114825;-66
2023/04/23 07:15:22;;;;;;;16.10;9.90;;;;;;;23.46;44.18;99628.91;129471;1281;114723;-67
2023/04/23 07:18:24;;;;;;;13.50;8.80;;;;;;;23.79;44.08;99623.36;129566;1281;114719;-65
2023/04/23 07:21:27;;;;;;;14.80;10.30;;;;;;;24.10;43.27;99624.49;129708;1264;116436;-65
2023/04/23 07:24:30;;;;;;;18.50;9.30;;;;;;;24.45;43.13;99619.99;129316;1265;114703;-66
2023/04/23 07:27:32;;;;;;;13.20;9.30;;;;;;;24.80;42.72;99614.02;129418;1261;115321;-66
2023/04/23 07:30:35;;;;;;;14.90;8.60;;;;;;;25.17;42.28;99613.75;129527;1271;114742;-66
2023/04/23 07:33:37;;;;;;;16.20;8.90;;;;;;;25.54;41.89;99605.08;129511;1264;115595;-66
2023/04/23 07:36:39;;;;;;;9.30;7.30;;;;;;;25.83;40.30;99606.44;129408;1262;120226;-67
2023/04/23 07:39:42;;;;;;;11.30;8.90;;;;;;;26.12;39.90;99606.09;129562;1273;114799;-66
2023/04/23 07:42:44;;;;;;;15.70;8.70;;;;;;;26.25;39.50;99603.02;129739;1262;114754;-67
2023/04/23 07:45:46;;;;;;;9.10;6.70;;;;;;;26.44;39.36;99604.68;129563;1263;114864;-65
2023/04/23 07:48:49;;;;;;;12.40;6.80;;;;;;;26.78;38.51;99601.46;129673;1264;114810;-67
2023/04/23 07:51:51;;;;;;;11.10;7.30;;;;;;;27.08;37.96;99596.65;129475;1281;115325;-68
2023/04/23 07:54:54;;;;;;;13.90;7.10;;;;;;;27.27;37.39;99597.83;129467;1272;114707;-65
2023/04/23 07:57:56;;;;;;;9.10;5.90;;;;;;;27.41;37.09;99595.95;129546;1281;120186;-67
2023/04/23 08:00:58;;;;;;;18.30;9.80;;;;;;;27.60;36.22;99589.23;129599;1264;114802;-66
2023/04/23 08:04:01;;;;;;;11.30;6.40;;;;;;;27.76;35.69;99587.11;129427;1263;115090;-68
2023/04/23 08:07:04;;;;;;;7.30;5.40;;;;;;;27.94;35.76;99585.80;129514;1264;114783;-65
2023/04/23 08:10:07;;;;;;;9.20;5.40;;;;;;;28.12;35.59;99587.09;129623;1281;114848;-65
2023/04/23 08:13:10;;;;;;;8.30;5.80;;;;;;;28.29;35.39;99586.70;129603;1262;114736;-69
2023/04/23 08:16:12;;;;;;;8.10;5.10;;;;;;;28.47;35.20;99587.39;129845;1271;114783;-67
2023/04/23 08:19:15;;;;;;;7.40;5.00;;;;;;;28.54;35.21;99579.91;129563;1281;114718;-68
2023/04/23 08:22:18;;;;;;;8.10;5.30;;;;;;;28.55;34.97;99581.95;129638;1271;114738;-69
2023/04/23 08:25:20;;;;;;;10.00;5.50;;;;;;;28.65;34.73;99580.27;129619;1279;114796;-68
2023/04/23 08:28:22;;;;;;;9.90;5.80;;;;;;;28.71;34.45;99579.28;129640;1281;114769;-67
2023/04/23 08:31:25;;;;;;;7.60;5.20;;;;;;;28.63;34.38;99575.52;129529;1281;114731;-66
2023/04/23 08:34:28;;;;;;;11.60;5.60;;;;;;;28.69;34.32;99569.58;129535;1274;114825;-65
2023/04/23 08:37:30;;;;;;;10.00;5.60;;;;;;;28.79;34.07;99567.52;129629;1281;115223;-65
2023/04/23 08:40:36;;;;;;;11.40;4.90;;;;;;;28.78;33.96;99562.66;129675;1281;114733;-66
2023/04/23 08:43:52;;;;;;;6.60;4.70;;;;;;;28.68;33.65;99560.95;129247;1267;114930;-65
2023/04/23 08:46:54;;;;;;;7.50;5.20;;;;;;;28.54;33.38;99554.83;129595;1281;115440;-65
2023/04/23 08:49:58;;;;;;;6.90;5.50;;;;;;;28.27;33.59;99552.71;129612;1265;114707;-67
2023/04/23 08:53:01;;;;;;;8.50;5.20;;;;;;;28.10;33.59;99550.44;129517;1264;114669;-65
2023/04/23 08:56:05;;;;;;;15.50;7.80;;;;;;;27.91;33.58;99551.40;129466;1264;114730;-64
2023/04/23 08:59:07;;;;;;;10.00;5.00;;;;;;;27.66;33.68;99544.02;129662;1264;114737;-65
2023/04/23 09:02:09;;;;;;;8.50;5.70;;;;;;;27.44;34.12;99542.98;129558;1261;114808;-65
2023/04/23 09:05:13;;;;;;;7.20;5.50;;;;;;;27.31;34.21;99540.55;129440;1271;114992;-65
2023/04/23 09:08:15;;;;;;;8.30;5.00;;;;;;;27.18;34.14;99536.94;129472;1281;115091;-66
2023/04/23 09:11:18;;;;;;;8.00;4.90;;;;;;;26.95;34.43;99539.10;129532;1281;115194;-67
2023/04/23 09:14:24;;;;;;;9.70;5.40;;;;;;;26.87;34.67;99537.08;129423;1281;115164;-66
2023/04/23 09:17:29;;;;;;;9.50;5.80;;;;;;;26.78;34.87;99538.80;129632;1264;114736;-65
2023/04/23 09:20:31;;;;;;;9.30;4.60;;;;;;;26.74;34.96;99537.29;129521;1264;114711;-66
2023/04/23 09:23:33;;;;;;;11.60;6.10;;;;;;;26.76;35.07;99536.11;129530;1281;114808;-66
2023/04/23 09:26:43;;;;;;;6.30;4.90;;;;;;;26.70;34.81;99537.23;129495;1281;114723;-65
2023/04/23 09:29:47;;;;;;;8.20;5.80;;;;;;;26.58;35.02;99537.52;129380;1281;115307;-67
2023/04/23 09:32:50;;;;;;;7.70;5.20;;;;;;;26.46;35.30;99535.86;129621;1264;114754;-69
2023/04/23 09:35:53;;;;;;;6.10;4.90;;;;;;;26.34;35.44;99537.59;129407;1266;114754;-67
2023/04/23 09:38:58;;;;;;;10.20;4.90;;;;;;;26.21;35.71;99535.75;129485;1266;114702;-67
2023/04/23 09:42:04;;;;;;;7.60;4.90;;;;;;;26.11;35.84;99533.40;129377;1266;119765;-67
2023/04/23 09:45:11;;;;;;;7.80;4.70;;;;;;;25.99;36.02;99529.47;129639;1281;115264;-69
2023/04/23 09:48:13;;;;;;;5.60;4.00;;;;;;;25.85;35.97;99519.45;129464;1278;114906;-68
2023/04/23 09:51:15;;;;;;;6.70;4.00;;;;;;;25.77;36.07;99516.83;129670;1267;114763;-69
2023/04/23 09:54:21;;;;;;;12.90;4.70;;;;;;;25.68;36.21;99511.13;129783;1279;115176;-68
2023/04/23 09:57:24;;;;;;;5.70;4.40;;;;;;;25.67;36.46;99509.05;129417;1263;114793;-69
2023/04/23 10:00:35;;;;;;;8.00;4.50;;;;;;;25.67;36.12;99507.65;129538;1260;120016;-68
2023/04/23 10:03:43;;;;;;;6.50;4.70;;;;;;;25.65;36.23;99506.45;129225;1281;115223;-68
2023/04/23 10:06:57;;;;;;;9.60;4.80;;;;;;;25.67;36.20;99504.20;129281;1260;114804;-68
2023/04/23 10:09:59;;;;;;;6.70;4.90;;;;;;;25.62;36.28;99501.45;129373;1274;115408;-69
2023/04/23 10:13:02;;;;;;;7.10;4.60;;;;;;;25.59;36.25;99501.15;129429;1264;114784;-68
2023/04/23 10:16:05;;;;;;;6.50;4.20;;;;;;;25.55;36.15;99501.70;129371;1281;115161;-68
2023/04/23 10:19:08;;;;;;;7.30;4.80;;;;;;;25.52;36.27;99506.23;129338;1281;114815;-67
2023/04/23 10:22:12;;;;;;;9.80;4.40;;;;;;;25.50;36.26;99503.50;129429;1264;114797;-68
2023/04/23 10:25:15;;;;;;;11.00;4.40;;;;;;;25.51;36.43;99506.73;129428;1262;115248;-68
2023/04/23 10:28:21;;;;;;;4.70;4.00;;;;;;;25.55;36.06;99505.33;129453;1263;114748;-67
2023/04/23 10:31:24;;;;;;;9.60;4.40;;;;;;;25.57;35.87;99507.13;129376;1262;120285;-68
2023/04/23 10:34:28;;;;;;;5.20;4.20;;;;;;;25.62;36.19;99506.67;129448;1260;114810;-68
2023/04/23 10:37:30;;;;;;;7.90;3.70;;;;;;;25.76;36.33;99501.08;129476;1264;115087;-68
2023/04/23 10:40:34;;;;;;;8.80;3.80;;;;;;;25.85;36.05;99503.33;129414;1263;114805;-68
2023/04/23 10:43:39;;;;;;;10.80;4.50;;;;;;;25.87;35.77;99505.11;129392;1281;114794;-68
2023/04/23 10:46:56;;;;;;;8.70;4.50;;;;;;;25.87;35.71;99506.25;129407;1263;120316;-68
2023/04/23 10:50:17;;;;;;;5.70;4.60;;;;;;;25.72;35.66;99506.52;129435;1277;114793;-68
2023/04/23 10:53:20;;;;;;;7.80;4.50;;;;;;;25.56;36.06;99507.98;129213;1267;115419;-68
2023/04/23 10:56:22;;;;;;;4.70;4.00;;;;;;;25.50;36.32;99509.44;129406;1273;114797;-69
2023/04/23 10:59:25;;;;;;;8.10;4.00;;;;;;;25.47;36.15;99513.48;129354;1271;114757;-68
2023/04/23 11:02:42;;;;;;;11.30;4.20;;;;;;;25.45;35.97;99512.35;129466;1281;114737;-69
2023/04/23 11:05:44;;;;;;;8.10;4.50;;;;;;;25.44;35.92;99512.93;129477;1281;115249;-68
2023/04/23 11:08:54;;;;;;;8.20;4.20;;;;;;;25.43;36.23;99510.64;129405;1281;115147;-68
2023/04/23 11:11:57;;;;;;;9.40;4.00;;;;;;;25.41;36.19;99511.61;129232;1281;114858;-67
2023/04/23 11:15:15;;;;;;;9.80;4.70;;;;;;;25.40;36.09;99510.45;129391;1281;114791;-67
2023/04/23 11:18:18;;;;;;;7.80;4.50;;;;;;;25.35;36.06;99509.76;129430;1261;119783;-68
2023/04/23 11:21:20;;;;;;;9.00;4.80;;;;;;;25.33;36.11;99510.54;129530;1258;114700;-67
2023/04/23 11:24:24;;;;;;;7.20;4.20;;;;;;;25.32;36.11;99514.12;129418;1260;114729;-68
2023/04/23 11:27:28;;;;;;;5.10;4.20;;;;;;;25.36;36.44;99507.70;129508;1264;114777;-67
2023/04/23 11:30:31;;;;;;;9.20;4.50;;;;;;;25.45;36.72;99507.45;129393;1273;114791;-69
2023/04/23 11:33:33;;;;;;;9.90;4.70;;;;;;;25.58;36.74;99504.02;129418;1279;114729;-67
2023/04/23 11:36:36;;;;;;;4.50;3.70;;;;;;;25.73;36.56;99505.79;129419;1271;115345;-65
2023/04/23 11:39:40;;;;;;;5.80;4.00;;;;;;;25.88;36.41;99504.45;129440;1264;114857;-68
2023/04/23 11:42:45;;;;;;;4.60;4.10;;;;;;;26.04;36.55;99501.81;129327;1264;114885;-67
2023/04/23 11:45:48;;;;;;;7.30;4.00;;;;;;;26.16;36.37;99499.20;129346;1281;114734;-68
2023/04/23 11:48:50;;;;;;;7.30;4.00;;;;;;;26.26;36.37;99497.27;129500;1281;114762;-68
2023/04/23 11:51:52;;;;;;;6.20;3.60;;;;;;;26.33;36.06;99499.80;129381;1281;114784;-68
2023/04/23 11:54:55;;;;;;;7.10;4.20;;;;;;;26.37;35.85;99498.06;129598;1281;114740;-69
2023/04/23 11:57:57;;;;;;;5.20;3.70;;;;;;;26.40;35.92;99497.08;129507;1260;115149;-69
2023/04/23 12:01:01;;;;;;;4.20;3.00;;;;;;;26.45;35.87;99494.32;129368;1261;114816;-67
2023/04/23 12:04:13;;;;;;;5.30;3.20;;;;;;;26.47;35.95;99497.71;129477;1262;114757;-68
2023/04/23 12:07:15;;;;;;;9.00;3.20;;;;;;;26.54;36.04;99494.17;129360;1281;115345;-68
2023/04/23 12:10:21;;;;;;;3.80;3.20;;;;;;;26.59;35.76;99494.62;129477;1262;114756;-68
2023/04/23 12:13:26;;;;;;;6.20;3.70;;;;;;;26.61;35.78;99492.65;129265;1265;115175;-68
2023/04/23 12:16:40;;;;;;;8.90;3.70;;;;;;;26.57;35.64;99493.85;129470;1263;114737;-67
2023/04/23 12:19:43;;;;;;;3.50;3.00;;;;;;;26.48;35.74;99495.48;129287;1264;115393;-69
2023/04/23 12:22:47;;;;;;;6.40;2.80;;;;;;;26.41;35.79;99499.53;129275;1276;114817;-68
2023/04/23 12:25:53;;;;;;;4.30;2.80;;;;;;;26.35;35.60;99498.55;129192;1282;119773;-68
2023/04/23 12:28:58;;;;;;;7.40;3.10;;;;;;;26.34;36.09;99499.89;129266;1272;114909;-67
2023/04/23 12:32:01;;;;;;;4.30;3.20;;;;;;;26.38;36.09;99503.90;129440;1259;114806;-68
2023/04/23 12:35:05;;;;;;;6.20;3.60;;;;;;;26.40;36.04;99504.38;129635;1264;114831;-69
2023/04/23 12:38:24;;;;;;;7.40;3.50;;;;;;;26.41;35.89;99506.46;129572;1275;114740;-69
2023/04/23 12:41:27;;;;;;;6.70;3.00;;;;;;;26.35;36.02;99513.81;129509;1263;119957;-70
2023/04/23 12:44:30;;;;;;;6.60;2.90;;;;;;;26.29;36.32;99517.01;129373;1263;114804;-70
2023/04/23 12:47:32;;;;;;;6.30;2.90;;;;;;;26.29;36.32;99520.02;129584;1264;115298;-65
2023/04/23 12:50:36;;;;;;;8.00;4.20;;;;;;;26.27;36.58;99522.43;129699;1261;114637;-68
2023/04/23 12:53:38;;;;;;;4.70;3.50;;;;;;;26.19;36.19;99526.02;129571;1261;114817;-69
2023/04/23 12:56:41;;;;;;;5.20;3.60;;;;;;;26.07;36.76;99521.61;129831;1262;114806;-66
2023/04/23 12:59:43;;;;;;;6.00;3.50;;;;;;;26.05;37.16;99522.57;129895;1261;114723;-66
2023/04/23 13:02:45;;;;;;;5.40;4.00;;;;;;;26.06;37.14;99522.45;129791;1261;114788;-67
2023/04/23 13:05:48;;;;;;;11.50;4.90;;;;;;;25.99;37.11;99530.19;129477;1265;115227;-68
2023/04/23 13:08:50;;;;;;;6.80;2.90;;;;;;;25.86;36.92;99531.62;129691;1281;115225;-65
2023/04/23 13:11:52;;;;;;;7.80;2.70;;;;;;;25.67;37.12;99531.08;129709;1261;115203;-66
2023/04/23 13:14:55;;;;;;;4.20;2.30;;;;;;;25.39;37.21;99533.70;129405;1262;114923;-64
2023/04/23 13:17:57;;;;;;;4.00;2.10;;;;;;;25.14;37.43;99532.83;129392;1281;114693;-66
2023/04/23 13:20:59;;;;;;;3.20;2.80;;;;;;;24.97;37.53;99528.84;129339;1281;114737;-65
2023/04/23 13:24:01;;;;;;;4.90;2.50;;;;;;;24.85;37.74;99525.77;129309;1262;269309;-66
2023/04/23 13:27:04;;;;;;;4.00;2.70;;;;;;;24.76;37.81;99527.10;129177;1281;115152;-65
2023/04/23 13:30:07;;;;;;;8.00;3.60;;;;;;;24.65;38.15;99538.41;129555;1278;114780;-66
2023/04/23 13:33:09;;;;;;;4.00;3.50;;;;;;;24.49;38.36;99539.46;129559;1259;115101;-65
2023/04/23 13:36:12;;;;;;;7.40;3.30;;;;;;;24.32;38.49;99543.10;129447;1277;114726;-66
2023/04/23 13:39:14;;;;;;;4.90;2.80;;;;;;;24.21;38.56;99544.81;129679;1274;115326;-64
2023/04/23 13:42:16;;;;;;;4.20;2.70;;;;;;;24.15;38.29;99540.55;129255;1281;128414;-64
2023/04/23 13:45:18;;;;;;;3.40;2.40;;;;;;;24.08;38.23;99539.76;129444;1281;115288;-65
2023/04/23 13:48:22;;;;;;;5.00;2.20;;;;;;;24.00;38.33;99540.08;129468;1281;115254;-65
2023/04/23 13:51:24;;;;;;;3.90;2.30;;;;;;;23.96;38.55;99538.94;129447;1262;114707;-65
2023/04/23 13:54:27;;;;;;;3.80;2.00;;;;;;;23.93;38.71;99537.84;129481;1261;114766;-65
2023/04/23 13:57:29;;;;;;;3.60;1.90;;;;;;;23.89;38.59;99536.33;129405;1281;114783;-64